createdAt,value
2022-11-28T14:52:40.949Z,55.58
2022-11-28T14:55:10.579Z,54.91
2022-11-28T14:57:53.588Z,56.99
2022-11-28T15:08:57.701Z,74.45
2022-11-28T15:11:37.204Z,79.16
2022-11-28T15:14:21.464Z,79.86
2022-11-28T15:16:50.915Z,82.69
2022-11-28T15:19:32.882Z,84.02
2022-11-28T15:22:01.353Z,85.53
2022-11-28T15:24:33.860Z,86.38
2022-11-28T15:27:10.322Z,87.16
2022-11-28T15:29:38.417Z,88.27
2022-11-28T15:32:06.333Z,88.46
2022-11-28T15:34:35.851Z,89.03
2022-11-28T15:37:14.812Z,88.99
2022-11-28T15:39:42.855Z,89.03
2022-11-28T15:42:21.542Z,89.30
2022-11-28T15:44:56.504Z,89.44
2022-11-28T15:47:24.153Z,90.18
2022-11-28T15:50:10.145Z,90.62
2022-11-28T15:52:38.114Z,90.87
2022-11-28T15:55:16.185Z,90.90
2022-11-28T15:57:43.506Z,90.75
2022-11-28T16:00:18.963Z,91.18
2022-11-28T16:02:47.446Z,90.98
2022-11-28T16:05:21.133Z,91.27
2022-11-28T16:07:51.243Z,91.74
2022-11-28T16:10:25.357Z,91.64
2022-11-28T16:13:00.343Z,91.20
2022-11-28T16:15:28.668Z,91.84
2022-11-28T16:17:56.346Z,91.89
2022-11-28T16:20:26.356Z,91.95
2022-11-28T16:22:59.902Z,91.53
2022-11-28T16:25:31.173Z,91.79
2022-11-28T16:27:59.734Z,91.84
2022-11-28T16:30:41.720Z,91.98
2022-11-28T16:33:38.301Z,91.72
2022-11-28T16:36:11.178Z,91.85
2022-11-28T16:38:39.210Z,92.09
2022-11-28T16:41:06.252Z,92.16
2022-11-28T16:43:39.456Z,91.65
2022-11-28T16:46:23.059Z,92.10
2022-11-28T16:48:56.066Z,92.43
2022-11-28T16:51:26.470Z,93.11
2022-11-28T16:53:59.851Z,93.15
2022-11-28T16:56:44.180Z,92.56
2022-11-28T16:59:17.672Z,92.79
2022-11-28T17:01:53.185Z,93.26
2022-11-28T17:04:28.651Z,92.59
2022-11-28T17:06:58.650Z,92.86
2022-11-28T17:09:26.013Z,92.91
2022-11-28T17:12:08.633Z,92.88
2022-11-28T17:14:37.715Z,93.27
2022-11-28T17:17:15.024Z,93.14
2022-11-28T17:19:42.714Z,93.11
2022-11-28T17:22:25.342Z,93.18
2022-11-28T17:24:57.528Z,92.97
2022-11-28T17:27:24.722Z,93.30
2022-11-28T17:29:53.492Z,93.23
2022-11-28T17:32:22.984Z,93.08
2022-11-28T17:34:51.193Z,93.25
2022-11-28T17:37:18.911Z,92.82
2022-11-28T17:40:05.212Z,93.13
2022-11-28T17:42:32.686Z,93.78
2022-11-28T17:45:00.033Z,92.67
2022-11-28T17:47:27.790Z,92.62
2022-11-28T17:49:56.121Z,92.76
2022-11-28T17:52:28.042Z,93.03
2022-11-28T17:55:00.855Z,93.18
2022-11-28T17:57:33.569Z,93.97
2022-11-28T18:00:00.933Z,93.29
2022-11-28T18:02:28.154Z,94.04
2022-11-28T18:04:55.723Z,93.68
2022-11-28T18:07:23.284Z,93.52
2022-11-28T18:09:50.192Z,94.49
2022-11-28T18:12:18.042Z,93.04
2022-11-28T18:14:45.430Z,93.76
2022-11-28T18:17:13.300Z,93.38
2022-11-28T18:19:41.537Z,93.55
2022-11-28T18:22:09.151Z,93.39
2022-11-28T18:24:36.554Z,93.38
2022-11-28T18:27:03.765Z,93.75
2022-11-28T18:29:32.199Z,93.40
2022-11-28T18:32:00.556Z,93.47
2022-11-28T18:34:28.230Z,93.42
2022-11-28T18:37:01.093Z,93.37
2022-11-28T18:39:33.522Z,93.09
2022-11-28T18:42:01.284Z,93.63
2022-11-28T18:44:29.241Z,93.55
2022-11-28T18:46:56.863Z,93.37
2022-11-28T18:49:25.750Z,93.52
2022-11-28T18:51:55.872Z,94.23
2022-11-28T18:54:23.163Z,94.01
2022-11-28T18:56:50.491Z,93.71
2022-11-28T18:59:18.115Z,93.77
2022-11-28T19:01:45.352Z,93.59
2022-11-28T19:04:13.933Z,92.94
2022-11-28T19:06:41.571Z,93.80
2022-11-28T19:09:11.392Z,93.66
2022-11-28T19:11:40.323Z,94.02
2022-11-28T19:14:08.472Z,94.01
2022-11-28T19:16:37.919Z,94.30
2022-11-28T19:19:06.259Z,94.31
2022-11-28T19:21:36.083Z,93.94
2022-11-28T19:24:04.566Z,93.57
2022-11-28T19:26:34.364Z,93.55
2022-11-28T19:29:02.769Z,94.00
2022-11-28T19:31:32.604Z,94.14
2022-11-28T19:34:06.975Z,93.49
2022-11-28T19:36:39.494Z,93.42
2022-11-28T19:39:12.085Z,93.71
2022-11-28T19:41:39.802Z,93.77
2022-11-28T19:44:06.924Z,94.00
2022-11-28T19:46:35.954Z,93.82
2022-11-28T19:49:09.613Z,94.11
2022-11-28T19:51:36.742Z,93.82
2022-11-28T19:54:04.323Z,93.60
2022-11-28T19:56:33.771Z,93.73
2022-11-28T19:59:01.653Z,93.49
2022-11-28T20:01:29.586Z,93.95
2022-11-28T20:03:57.951Z,94.08
2022-11-28T20:06:27.973Z,94.28
2022-11-28T20:08:58.412Z,94.31
2022-11-28T20:11:28.583Z,93.87
2022-11-28T20:13:58.483Z,93.80
2022-11-28T20:16:26.357Z,93.77
2022-11-28T20:18:53.942Z,93.64
2022-11-28T20:21:21.840Z,94.31
2022-11-28T20:23:52.432Z,93.83
2022-11-28T20:26:24.233Z,94.59
2022-11-28T20:28:55.334Z,93.75
2022-11-28T20:31:30.944Z,93.41
2022-11-28T20:33:59.031Z,93.53
2022-11-28T20:36:27.846Z,93.60
2022-11-28T20:38:56.136Z,93.76
2022-11-28T20:41:25.092Z,93.76
2022-11-28T20:43:52.882Z,93.95
2022-11-28T20:46:29.632Z,93.48
2022-11-28T20:48:58.414Z,93.67
2022-11-28T20:51:27.488Z,94.15
2022-11-28T20:53:55.713Z,93.96
2022-11-28T20:56:25.241Z,93.34
2022-11-28T20:58:53.195Z,94.04
2022-11-28T21:01:23.005Z,94.08
2022-11-28T21:03:51.185Z,92.98
2022-11-28T21:06:19.162Z,93.54
2022-11-28T21:08:46.984Z,94.02
2022-11-28T21:11:43.806Z,93.42
2022-11-28T21:14:09.133Z,93.11
2022-11-28T21:16:36.765Z,93.71
2022-11-28T21:19:07.807Z,94.38
2022-11-28T21:21:37.281Z,94.09
2022-11-28T21:24:10.645Z,93.92
2022-11-28T21:26:42.399Z,93.33
2022-11-28T21:29:13.515Z,93.22
2022-11-28T21:31:43.720Z,93.69
2022-11-28T21:34:14.636Z,93.24
2022-11-28T21:36:42.797Z,94.11
2022-11-28T21:39:15.059Z,93.83
2022-11-28T21:41:42.841Z,93.28
2022-11-28T21:44:12.601Z,93.99
2022-11-28T21:46:40.110Z,93.43
2022-11-28T21:49:07.402Z,93.70
2022-11-28T21:51:39.043Z,93.38
2022-11-28T21:54:06.768Z,93.60
2022-11-28T21:56:34.239Z,93.89
2022-11-28T21:59:01.971Z,94.12
2022-11-28T22:01:29.410Z,94.18
2022-11-28T22:04:02.448Z,92.97
2022-11-28T22:06:31.094Z,93.65
2022-11-28T22:09:03.258Z,93.90
2022-11-28T22:11:34.443Z,93.36
2022-11-28T22:14:02.024Z,93.70
2022-11-28T22:16:29.990Z,93.18
2022-11-28T22:18:59.990Z,93.81
2022-11-28T22:24:14.990Z,93.82
2022-11-28T22:26:44.421Z,94.14
2022-11-28T22:29:12.841Z,93.68
2022-11-28T22:31:40.706Z,93.77
2022-11-28T22:34:09.594Z,93.43
2022-11-28T22:36:37.119Z,93.52
2022-11-28T22:39:04.744Z,94.27
2022-11-28T22:41:31.947Z,93.89
2022-11-28T22:44:01.323Z,94.13
2022-11-28T22:46:31.803Z,94.11
2022-11-28T22:49:03.492Z,94.24
2022-11-28T22:51:31.232Z,93.48
2022-11-28T22:54:00.731Z,93.45
2022-11-28T22:56:30.832Z,93.69
2022-11-28T22:58:59.482Z,93.98
2022-11-28T23:01:30.681Z,93.74
2022-11-28T23:03:58.775Z,93.97
2022-11-28T23:06:28.616Z,94.27
2022-11-28T23:09:00.553Z,93.72
2022-11-28T23:11:31.153Z,93.31
2022-11-28T23:13:59.320Z,93.54
2022-11-28T23:16:35.429Z,93.33
2022-11-28T23:19:06.603Z,93.78
2022-11-28T23:21:36.272Z,93.83
2022-11-28T23:24:05.132Z,93.82
2022-11-28T23:26:33.682Z,94.03
2022-11-28T23:29:04.173Z,93.22
2022-11-28T23:31:33.208Z,93.66
2022-11-28T23:34:01.277Z,93.59
2022-11-28T23:36:28.921Z,93.77
2022-11-28T23:38:59.924Z,93.79
2022-11-28T23:41:27.762Z,93.03
2022-11-28T23:43:55.017Z,93.75
2022-11-28T23:46:22.855Z,93.74
2022-11-28T23:48:50.352Z,93.71
2022-11-28T23:51:19.303Z,93.52
2022-11-28T23:53:46.412Z,93.39
2022-11-28T23:56:19.892Z,94.08
2022-11-28T23:58:47.452Z,93.75
